Time;durP1;ratioP1;P1;durP2;ratioP2;P2;SDS_P1;SDS_P2;PMS_P1;PMS_P2;Temp;Humidity;BMP_temperature;BMP_pressure;BME280_temperature;BME280_humidity;BME280_pressure;Samples;Min_cycle;Max_cycle;Signal;HPM_P1;HPM_P2
2023/05/11 11:35:43;;;;;;;0.90;0.90;;;;;;;;;;5839764;23;20059;-76
2023/05/11 11:38:18;;;;;;;0.85;0.85;;;;;;;;;;4938101;29;20043;-80
2023/05/11 11:40:51;;;;;;;1.30;1.20;;;;;;;;;;4938307;29;20028;-81
2023/05/11 11:43:24;;;;;;;2.00;1.80;;;;;;;;;;4937796;29;20031;-79
2023/05/11 11:46:00;;;;;;;1.50;1.40;;;;;;;;;;4937862;29;20459;-77
2023/05/11 15:54:42;;;;;;;;;;;;;;;;;;4965148;23;19933;-75
2023/05/11 15:57:08;;;;;;;;;;;;;;;;;;4938187;29;19923;-75
2023/05/11 15:59:33;;;;;;;;;;;;;;;;;;4938234;29;20018;-75
2023/05/11 16:01:58;;;;;;;;;;;;;;;;;;4938116;29;19926;-75
2023/05/11 16:04:24;;;;;;;;;;;;;;;;;;4938025;29;19978;-75
2023/05/11 16:06:49;;;;;;;;;;;;;;;;;;4938050;29;19966;-75
2023/05/11 16:09:15;;;;;;;;;;;;;;;;;;4938179;29;19919;-75
2023/05/11 16:11:42;;;;;;;;;;;;;;;;;;4937999;29;19915;-75
2023/05/11 16:14:07;;;;;;;;;;;;;;;;;;4936825;29;20466;-76
2023/05/11 16:16:33;;;;;;;;;;;;;;;;;;4920852;29;19918;-75
2023/05/11 16:18:58;;;;;;;;;;;;;;;;;;4937730;29;19923;-75
2023/05/11 16:21:23;;;;;;;;;;;;;;;;;;4937636;29;19926;-75
2023/05/11 16:23:49;;;;;;;;;;;;;;;;;;4937913;29;19966;-76
2023/05/11 17:23:22;;;;;;;;;;;;;;;;;;6148079;22;2078210;-76
2023/05/11 17:25:47;;;;;;;;;;;;;;;;;;6224653;23;19962;-75
2023/05/11 17:28:13;;;;;;;;;;;;;;;;;;6224823;23;19958;-75
2023/05/11 17:30:39;;;;;;;;;;;;;;;;;;6233259;23;19915;-78
2023/05/11 17:33:04;;;;;;;;;;;;;;;;;;6228201;23;20326;-75
2023/05/11 17:35:29;;;;;;;;;;;;;;;;;;6255225;23;19912;-75
2023/05/11 17:37:54;;;;;;;;;;;;;;;;;;6255310;23;20323;-76
2023/05/11 17:40:20;;;;;;;;;;;;;;;;;;6255255;23;19911;-75
2023/05/11 17:42:45;;;;;;;;;;;;;;;;;;6255185;23;19912;-79
2023/05/11 17:45:11;;;;;;;;;;;;;;;;;;6255250;23;19915;-76
2023/05/11 17:47:37;;;;;;;;;;;;;;;;;;6253807;23;19911;-78
2023/05/11 17:50:02;;;;;;;;;;;;;;;;;;6255030;23;19962;-76
2023/05/11 17:52:27;;;;;;;;;;;;;;;;;;6228367;23;19908;-76
2023/05/11 17:54:53;;;;;;;;;;;;;;;;;;6255075;23;19919;-78
2023/05/11 17:57:18;;;;;;;;;;;;;;;;;;6251776;23;19918;-79
2023/05/11 17:59:44;;;;;;;;;;;;;;;;;;6248402;23;20286;-80
2023/05/11 18:02:10;;;;;;;;;;;;;;;;;;6248238;23;19918;-82
2023/05/11 18:04:36;;;;;;;;;;;;;;;;;;6248201;23;19907;-77
2023/05/11 18:07:02;;;;;;;;;;;;;;;;;;6248327;23;20219;-77
2023/05/11 18:09:28;;;;;;;;;;;;;;;;;;6248219;23;19955;-76
2023/05/11 18:11:53;;;;;;;;;;;;;;;;;;6248414;23;19912;-76
2023/05/11 18:14:19;;;;;;;;;;;;;;;;;;6221298;23;19916;-76
2023/05/11 18:16:44;;;;;;;;;;;;;;;;;;6248122;23;19911;-78
2023/05/11 18:19:09;;;;;;;;;;;;;;;;;;6248048;23;20291;-76
2023/05/11 18:21:35;;;;;;;;;;;;;;;;;;6248011;23;19919;-78
2023/05/11 18:24:01;;;;;;;;;;;;;;;;;;6247898;23;20018;-77
2023/05/11 18:26:26;;;;;;;;;;;;;;;;;;6247874;23;19943;-79
2023/05/11 18:28:53;;;;;;;;;;;;;;;;;;6248292;23;20238;-78
2023/05/11 18:31:19;;;;;;;;;;;;;;;;;;6247896;23;19915;-77
2023/05/11 18:33:45;;;;;;;;;;;;;;;;;;6248370;23;19938;-77
2023/05/11 18:36:10;;;;;;;;;;;;;;;;;;6247849;23;19954;-81
2023/05/11 18:38:36;;;;;;;;;;;;;;;;;;6247993;23;19912;-80
2023/05/11 18:41:04;;;;;;;;;;;;;;;;;;6248506;23;20319;-79
2023/05/11 18:43:29;;;;;;;;;;;;;;;;;;6247973;23;19987;-78
2023/05/11 18:45:55;;;;;;;;;;;;;;;;;;6247791;23;19993;-80
2023/05/11 18:48:21;;;;;;;;;;;;;;;;;;6248000;23;19916;-80
2023/05/11 18:50:52;;;;;;;;;;;;;;;;;;6248030;23;19991;-81
2023/05/11 18:53:18;;;;;;;;;;;;;;;;;;6221348;23;20307;-79
2023/05/11 18:55:43;;;;;;;;;;;;;;;;;;6248103;23;19966;-79
2023/05/11 18:58:08;;;;;;;;;;;;;;;;;;6247821;23;19922;-75
2023/05/11 19:00:36;;;;;;;;;;;;;;;;;;6247903;23;19916;-75
2023/05/11 19:03:01;;;;;;;;;;;;;;;;;;6247733;23;19974;-79
2023/05/11 19:05:26;;;;;;;;;;;;;;;;;;6247651;23;19911;-82
2023/05/11 19:07:52;;;;;;;;;;;;;;;;;;6247635;23;19912;-76
2023/05/11 19:10:17;;;;;;;;;;;;;;;;;;6247465;23;19920;-75
2023/05/11 19:12:42;;;;;;;;;;;;;;;;;;6247475;23;19994;-75
2023/05/11 19:15:08;;;;;;;;;;;;;;;;;;6247911;23;19912;-75
2023/05/11 19:17:33;;;;;;;;;;;;;;;;;;6247890;23;19919;-76
2023/05/11 19:19:59;;;;;;;;;;;;;;;;;;6247730;23;19993;-76
2023/05/11 19:22:24;;;;;;;;;;;;;;;;;;6247376;23;19918;-76
2023/05/11 19:24:49;;;;;;;;;;;;;;;;;;6247251;23;19977;-76
2023/05/11 19:27:16;;;;;;;;;;;;;;;;;;6247774;23;19995;-76
2023/05/11 19:29:41;;;;;;;;;;;;;;;;;;6247550;23;19926;-76
2023/05/11 19:32:07;;;;;;;;;;;;;;;;;;6247577;23;19912;-76
2023/05/11 19:34:32;;;;;;;;;;;;;;;;;;6247550;23;20235;-76
2023/05/11 19:36:57;;;;;;;;;;;;;;;;;;6247502;23;19958;-75
2023/05/11 19:39:23;;;;;;;;;;;;;;;;;;6247569;23;19958;-76
